createdAt,value
2018-11-25T00:00:10.840Z,3.70
2018-11-25T00:02:39.052Z,3.80
2018-11-25T00:05:08.321Z,3.80
2018-11-25T00:07:36.635Z,3.80
2018-11-25T00:10:05.576Z,3.80
2018-11-25T00:12:33.949Z,3.80
2018-11-25T00:15:02.563Z,3.80
2018-11-25T00:17:31.094Z,3.80
2018-11-25T00:19:59.552Z,3.90
2018-11-25T00:22:28.009Z,3.90
2018-11-25T00:24:56.353Z,3.90
2018-11-25T00:27:24.725Z,3.90
2018-11-25T00:29:53.092Z,3.90
2018-11-25T00:32:21.525Z,3.90
2018-11-25T00:34:49.940Z,3.90
2018-11-25T00:37:18.307Z,3.90
2018-11-25T00:39:46.651Z,3.90
2018-11-25T00:42:15.037Z,3.90
2018-11-25T00:44:43.321Z,3.90
2018-11-25T00:47:11.746Z,3.90
2018-11-25T00:49:40.197Z,3.90
2018-11-25T00:52:08.657Z,3.90
2018-11-25T00:54:37.055Z,3.90
2018-11-25T00:57:05.979Z,3.90
2018-11-25T00:59:34.357Z,3.90
2018-11-25T01:02:02.749Z,3.90
2018-11-25T01:04:31.176Z,3.90
2018-11-25T01:06:59.536Z,3.90
2018-11-25T01:09:27.933Z,3.80
2018-11-25T01:11:56.365Z,3.80
2018-11-25T01:14:24.715Z,3.90
2018-11-25T01:16:53.225Z,3.90
2018-11-25T01:19:21.577Z,3.90
2018-11-25T01:21:49.949Z,3.90
2018-11-25T01:24:18.309Z,3.90
2018-11-25T01:26:46.628Z,3.90
2018-11-25T01:29:15.028Z,3.90
2018-11-25T01:31:43.378Z,3.80
2018-11-25T01:34:11.709Z,3.90
2018-11-25T01:36:40.083Z,3.80
2018-11-25T01:39:08.353Z,3.90
2018-11-25T01:41:36.677Z,3.90
2018-11-25T01:44:05.030Z,3.90
2018-11-25T01:46:33.490Z,3.80
2018-11-25T01:49:01.833Z,3.90
2018-11-25T01:51:30.117Z,3.80
2018-11-25T01:53:58.465Z,3.80
2018-11-25T01:56:26.785Z,3.80
2018-11-25T01:58:55.057Z,3.80
2018-11-25T02:01:23.353Z,3.80
2018-11-25T02:03:52.852Z,3.80
2018-11-25T02:06:21.044Z,3.90
2018-11-25T02:08:49.228Z,3.90
2018-11-25T02:11:17.397Z,3.90
2018-11-25T02:13:45.716Z,3.80
2018-11-25T02:16:13.965Z,3.80
2018-11-25T02:18:42.320Z,3.80
2018-11-25T02:21:10.569Z,3.80
2018-11-25T02:23:38.748Z,3.70
2018-11-25T02:26:07.121Z,3.70
2018-11-25T02:28:35.437Z,3.70
2018-11-25T02:31:03.886Z,3.60
2018-11-25T02:33:32.126Z,3.60
2018-11-25T02:36:00.400Z,3.60
2018-11-25T02:38:28.616Z,3.60
2018-11-25T02:40:56.933Z,3.60
2018-11-25T02:43:25.278Z,3.60
2018-11-25T02:45:53.628Z,3.50
2018-11-25T02:48:22.017Z,3.50
2018-11-25T02:50:50.406Z,3.50
2018-11-25T02:53:18.785Z,3.50
2018-11-25T02:55:47.121Z,3.60
2018-11-25T02:58:15.465Z,3.60
2018-11-25T03:00:43.836Z,3.60
2018-11-25T03:03:12.208Z,3.60
2018-11-25T03:05:40.539Z,3.60
2018-11-25T03:08:08.788Z,3.70
2018-11-25T03:10:36.953Z,3.60
2018-11-25T03:13:05.321Z,3.60
2018-11-25T03:15:33.622Z,3.60
2018-11-25T03:18:02.007Z,3.60
2018-11-25T03:20:30.333Z,3.60
2018-11-25T03:22:58.567Z,3.60
2018-11-25T03:25:26.855Z,3.60
2018-11-25T03:27:55.083Z,3.60
2018-11-25T03:30:23.232Z,3.60
2018-11-25T03:32:53.187Z,3.60
2018-11-25T03:35:21.383Z,3.50
2018-11-25T03:37:49.572Z,3.50
2018-11-25T03:40:18.437Z,3.50
2018-11-25T03:42:46.645Z,3.50
2018-11-25T03:45:20.004Z,3.50
2018-11-25T03:47:48.230Z,3.40
2018-11-25T03:50:16.489Z,3.40
2018-11-25T03:52:44.710Z,3.40
2018-11-25T03:55:13.783Z,3.40
2018-11-25T03:57:41.981Z,3.40
2018-11-25T04:00:11.360Z,3.40
2018-11-25T04:02:39.656Z,3.40
2018-11-25T04:05:09.377Z,3.40
2018-11-25T04:07:37.558Z,3.30
2018-11-25T04:10:12.184Z,3.30
2018-11-25T04:12:40.520Z,3.30
2018-11-25T04:15:14.837Z,3.20
2018-11-25T04:17:43.111Z,3.20
2018-11-25T04:20:15.425Z,3.20
2018-11-25T04:22:43.816Z,3.20
2018-11-25T04:25:12.539Z,3.10
2018-11-25T04:27:40.879Z,3.10
2018-11-25T04:30:12.175Z,3.00
2018-11-25T04:32:40.581Z,3.00
2018-11-25T04:35:10.077Z,3.00
2018-11-25T04:37:38.445Z,3.00
2018-11-25T04:40:08.362Z,2.90
2018-11-25T04:42:36.612Z,2.90
2018-11-25T04:45:05.523Z,2.90
2018-11-25T04:47:33.901Z,2.80
2018-11-25T04:50:02.245Z,2.80
2018-11-25T04:52:30.541Z,2.80
2018-11-25T04:54:58.709Z,2.80
2018-11-25T04:57:27.269Z,2.80
2018-11-25T04:59:55.553Z,2.70
2018-11-25T05:02:23.820Z,2.70
2018-11-25T05:04:52.057Z,2.70
2018-11-25T05:07:20.352Z,2.70
2018-11-25T05:09:49.144Z,2.70
2018-11-25T05:12:17.357Z,2.60
2018-11-25T05:14:45.564Z,2.60
2018-11-25T05:17:13.770Z,2.50
2018-11-25T05:19:42.107Z,2.50
2018-11-25T05:22:10.469Z,2.50
2018-11-25T05:24:38.811Z,2.50
2018-11-25T05:27:07.277Z,2.40
2018-11-25T05:29:35.459Z,2.40
2018-11-25T05:32:03.609Z,2.40
2018-11-25T05:34:31.794Z,2.40
2018-11-25T05:37:00.007Z,2.30
2018-11-25T05:39:28.183Z,2.40
2018-11-25T05:41:56.384Z,2.30
2018-11-25T05:44:24.705Z,2.40
2018-11-25T05:46:53.013Z,2.30
2018-11-25T05:49:21.238Z,2.30
2018-11-25T05:51:49.497Z,2.30
2018-11-25T05:54:17.681Z,2.40
2018-11-25T05:56:45.841Z,2.30
2018-11-25T05:59:14.032Z,2.30
2018-11-25T06:01:42.227Z,2.30
2018-11-25T06:04:10.405Z,2.40
2018-11-25T06:06:38.561Z,2.40
2018-11-25T06:09:08.356Z,2.30
2018-11-25T06:11:36.614Z,2.30
2018-11-25T06:14:04.812Z,2.30
2018-11-25T06:16:33.083Z,2.30
2018-11-25T06:19:01.241Z,2.30
2018-11-25T06:21:29.428Z,2.30
2018-11-25T06:23:57.644Z,2.30
2018-11-25T06:26:25.800Z,2.30
2018-11-25T06:28:54.008Z,2.20
2018-11-25T06:31:22.173Z,2.20
2018-11-25T06:33:50.452Z,2.20
2018-11-25T06:36:18.786Z,2.20
2018-11-25T06:38:47.189Z,2.20
2018-11-25T06:41:15.472Z,2.20
2018-11-25T06:43:43.824Z,2.20
2018-11-25T06:46:12.724Z,2.20
2018-11-25T06:48:41.004Z,2.20
2018-11-25T06:51:09.196Z,2.20
2018-11-25T06:53:37.568Z,2.20
2018-11-25T06:56:06.104Z,2.10
2018-11-25T06:58:34.333Z,2.10
2018-11-25T07:01:02.622Z,2.10
2018-11-25T07:03:30.808Z,2.10
2018-11-25T07:05:59.030Z,2.10
2018-11-25T07:08:27.224Z,2.10
2018-11-25T07:10:55.405Z,2.10
2018-11-25T07:13:23.750Z,2.20
2018-11-25T07:15:51.957Z,2.20
2018-11-25T07:18:20.173Z,2.20
2018-11-25T07:20:48.384Z,2.20
2018-11-25T07:23:16.602Z,2.20
2018-11-25T07:25:45.017Z,2.20
2018-11-25T07:28:18.448Z,2.30
2018-11-25T07:30:41.558Z,2.30
2018-11-25T07:33:10.477Z,2.30
2018-11-25T07:35:38.655Z,2.30
2018-11-25T07:38:06.857Z,2.30
2018-11-25T07:40:35.363Z,2.30
2018-11-25T07:43:03.244Z,2.30
2018-11-25T07:45:31.432Z,2.30
2018-11-25T07:47:59.636Z,2.30
2018-11-25T07:50:27.837Z,2.30
2018-11-25T07:52:56.064Z,2.30
2018-11-25T07:55:25.161Z,2.30
2018-11-25T07:57:54.552Z,2.40
2018-11-25T08:00:23.653Z,2.40
2018-11-25T08:02:51.864Z,2.50
2018-11-25T08:05:22.081Z,2.50
2018-11-25T08:07:50.276Z,2.50
2018-11-25T08:10:18.445Z,2.50
2018-11-25T08:12:47.416Z,2.60
2018-11-25T08:15:16.547Z,2.50
2018-11-25T08:17:44.856Z,2.50
2018-11-25T08:20:15.035Z,2.60
2018-11-25T08:22:43.280Z,2.60
2018-11-25T08:25:12.615Z,2.60
2018-11-25T08:27:40.954Z,2.60
2018-11-25T08:30:16.240Z,2.70
2018-11-25T08:32:44.664Z,2.70
2018-11-25T08:35:13.725Z,2.70
2018-11-25T08:37:42.116Z,2.80
2018-11-25T08:40:14.368Z,2.80
2018-11-25T08:42:42.879Z,2.80
2018-11-25T08:45:12.136Z,2.90
2018-11-25T08:47:40.337Z,2.90
2018-11-25T08:50:18.230Z,2.90
2018-11-25T08:52:47.492Z,3.00
2018-11-25T08:55:16.644Z,3.00
2018-11-25T08:57:45.160Z,3.00
2018-11-25T09:00:17.288Z,3.10
2018-11-25T09:02:45.645Z,3.10
2018-11-25T09:05:14.677Z,2.00
2018-11-25T09:07:42.893Z,3.10
2018-11-25T09:10:19.773Z,3.10
2018-11-25T09:12:55.859Z,3.20
2018-11-25T09:15:24.448Z,3.10
2018-11-25T09:17:52.649Z,3.20
2018-11-25T09:20:21.765Z,3.20
2018-11-25T09:22:50.640Z,3.30
2018-11-25T09:25:21.926Z,3.30
2018-11-25T09:27:50.182Z,3.30
2018-11-25T09:30:19.691Z,3.30
2018-11-25T09:32:47.970Z,3.30
2018-11-25T09:35:16.221Z,3.40
2018-11-25T09:37:44.420Z,3.40
2018-11-25T09:40:15.456Z,3.40
2018-11-25T09:42:43.693Z,3.40
2018-11-25T09:45:15.453Z,3.40
2018-11-25T09:47:43.893Z,3.50
2018-11-25T09:50:15.938Z,3.50
2018-11-25T09:52:44.133Z,3.60
2018-11-25T09:55:13.296Z,3.60
2018-11-25T09:57:42.764Z,3.60
2018-11-25T10:00:17.195Z,3.60
2018-11-25T10:02:45.376Z,3.60
2018-11-25T10:05:13.937Z,3.70
2018-11-25T10:07:42.402Z,3.80
2018-11-25T10:10:15.167Z,3.80
2018-11-25T10:12:43.691Z,3.80
2018-11-25T10:15:16.703Z,3.90
2018-11-25T10:17:44.898Z,3.90
2018-11-25T10:20:18.319Z,3.90
2018-11-25T10:22:46.577Z,4.00
2018-11-25T10:25:15.587Z,3.90
2018-11-25T10:27:43.781Z,3.90
2018-11-25T10:30:27.888Z,3.90
2018-11-25T10:32:58.337Z,3.90
2018-11-25T10:35:26.523Z,4.00
2018-11-25T10:37:54.700Z,4.10
2018-11-25T10:40:23.668Z,4.10
2018-11-25T10:42:51.884Z,4.10
2018-11-25T10:45:22.058Z,4.10
2018-11-25T10:47:50.300Z,4.10
2018-11-25T10:50:19.199Z,4.20
2018-11-25T10:52:47.523Z,4.20
2018-11-25T10:55:17.522Z,4.30
2018-11-25T10:57:46.627Z,4.30
2018-11-25T11:00:26.069Z,4.40
2018-11-25T11:02:59.562Z,4.40
2018-11-25T11:05:33.162Z,4.50
2018-11-25T11:08:01.599Z,4.40
2018-11-25T11:10:29.841Z,4.40
2018-11-25T11:12:58.827Z,4.40
2018-11-25T11:15:26.815Z,4.50
2018-11-25T11:17:55.016Z,4.40
2018-11-25T11:20:23.224Z,4.50
2018-11-25T11:22:53.964Z,4.50
2018-11-25T11:25:22.176Z,4.50
2018-11-25T11:27:50.368Z,4.60
2018-11-25T11:30:18.523Z,4.60
2018-11-25T11:32:48.085Z,4.60
2018-11-25T11:35:16.275Z,4.70
2018-11-25T11:37:44.472Z,4.70
2018-11-25T11:40:13.509Z,4.70
2018-11-25T11:42:41.732Z,4.70
2018-11-25T11:45:11.212Z,4.60
2018-11-25T11:47:39.723Z,4.70
2018-11-25T11:50:09.950Z,4.70
2018-11-25T11:52:38.145Z,4.70
2018-11-25T11:55:07.900Z,4.80
2018-11-25T11:57:36.171Z,4.80
2018-11-25T12:00:08.595Z,4.80
2018-11-25T12:02:36.794Z,4.90
2018-11-25T12:05:05.701Z,4.90
2018-11-25T12:07:34.306Z,4.90
2018-11-25T12:10:02.521Z,4.90
2018-11-25T12:12:30.730Z,5.00
2018-11-25T12:14:59.264Z,5.00
2018-11-25T12:17:27.763Z,5.00
2018-11-25T12:19:56.166Z,5.00
2018-11-25T12:22:24.573Z,5.00
2018-11-25T12:24:54.292Z,5.00
2018-11-25T12:27:22.996Z,5.00
2018-11-25T12:29:51.245Z,5.00
2018-11-25T12:32:19.417Z,5.00
2018-11-25T12:34:47.650Z,5.00
2018-11-25T12:37:16.713Z,5.00
2018-11-25T12:39:45.268Z,4.90
2018-11-25T12:42:13.898Z,4.90
2018-11-25T12:44:42.176Z,5.00
2018-11-25T12:47:12.952Z,4.90
2018-11-25T12:49:41.209Z,4.90
2018-11-25T12:52:09.373Z,5.00
2018-11-25T12:54:37.577Z,5.00
2018-11-25T12:57:05.848Z,5.00
2018-11-25T12:59:34.288Z,5.00
2018-11-25T13:02:02.484Z,5.00
2018-11-25T13:04:30.674Z,5.00
2018-11-25T13:06:58.857Z,5.00
2018-11-25T13:09:27.053Z,4.90
2018-11-25T13:11:55.230Z,5.00
2018-11-25T13:14:23.452Z,5.00
2018-11-25T13:16:51.658Z,5.10
2018-11-25T13:19:19.888Z,5.10
2018-11-25T13:21:48.112Z,5.10
2018-11-25T13:24:16.352Z,5.10
2018-11-25T13:26:44.548Z,5.10
2018-11-25T13:29:12.762Z,5.00
2018-11-25T13:31:40.964Z,5.00
2018-11-25T13:34:09.172Z,5.00
2018-11-25T13:36:37.361Z,5.00
2018-11-25T13:39:08.680Z,4.90
2018-11-25T13:41:36.929Z,5.00
2018-11-25T13:44:05.291Z,5.00
2018-11-25T13:46:33.500Z,4.90
2018-11-25T13:49:01.691Z,4.90
2018-11-25T13:51:29.867Z,4.80
2018-11-25T13:53:59.570Z,4.80
2018-11-25T13:56:28.052Z,4.80
2018-11-25T13:58:56.347Z,4.70
2018-11-25T14:01:24.609Z,4.70
2018-11-25T14:03:52.878Z,4.70
2018-11-25T14:06:21.099Z,4.70
2018-11-25T14:08:51.575Z,4.70
2018-11-25T14:11:19.912Z,4.80
2018-11-25T14:13:48.280Z,4.80
2018-11-25T14:16:19.125Z,4.80
2018-11-25T14:18:47.566Z,4.80
2018-11-25T14:21:15.877Z,4.90
2018-11-25T14:23:44.091Z,4.90
2018-11-25T14:26:14.876Z,4.90
2018-11-25T14:28:43.333Z,4.90
2018-11-25T14:31:11.605Z,4.90
2018-11-25T14:33:40.720Z,4.80
2018-11-25T14:36:08.945Z,4.80
2018-11-25T14:38:37.140Z,4.80
2018-11-25T14:41:05.360Z,4.80
2018-11-25T14:43:33.532Z,4.80
2018-11-25T14:46:01.764Z,4.70
2018-11-25T14:48:29.958Z,4.70
2018-11-25T14:50:58.137Z,4.60
2018-11-25T14:53:26.360Z,4.60
2018-11-25T14:55:54.549Z,4.50
2018-11-25T14:58:22.790Z,4.50
2018-11-25T15:00:51.293Z,4.50
2018-11-25T15:03:19.151Z,4.50
2018-11-25T15:05:48.200Z,4.50
2018-11-25T15:08:18.868Z,4.50
2018-11-25T15:10:47.024Z,4.50
2018-11-25T15:13:15.237Z,4.50
2018-11-25T15:15:43.432Z,4.50
2018-11-25T15:18:11.595Z,4.50
2018-11-25T15:20:39.776Z,4.50
2018-11-25T15:23:10.332Z,4.50
2018-11-25T15:25:40.585Z,4.40
2018-11-25T15:28:08.832Z,4.40
2018-11-25T15:30:37.000Z,4.40
2018-11-25T15:33:05.284Z,4.40
2018-11-25T15:35:33.472Z,4.40
2018-11-25T15:38:01.641Z,4.40
2018-11-25T15:40:31.253Z,4.40
2018-11-25T15:42:59.429Z,4.40
2018-11-25T15:45:27.603Z,4.40
2018-11-25T15:47:59.148Z,4.40
2018-11-25T15:50:28.213Z,4.40
2018-11-25T15:52:56.580Z,4.40
2018-11-25T15:55:24.956Z,4.40
2018-11-25T15:57:53.121Z,4.40
2018-11-25T16:00:22.386Z,4.40
2018-11-25T16:02:50.578Z,4.40
2018-11-25T16:05:20.256Z,4.40
2018-11-25T16:07:48.564Z,4.40
2018-11-25T16:10:16.723Z,4.40
2018-11-25T16:12:46.226Z,4.40
2018-11-25T16:15:19.328Z,4.40
2018-11-25T16:17:47.484Z,4.40
2018-11-25T16:20:17.788Z,4.40
2018-11-25T16:22:46.809Z,4.40
2018-11-25T16:25:19.133Z,4.50
2018-11-25T16:27:47.988Z,4.40
2018-11-25T16:30:16.160Z,4.40
2018-11-25T16:32:45.385Z,4.40
2018-11-25T16:35:13.594Z,4.40
2018-11-25T16:37:41.929Z,4.40
2018-11-25T16:40:50.927Z,4.40
2018-11-25T16:43:20.316Z,4.40
2018-11-25T16:45:48.480Z,4.40
2018-11-25T16:48:18.572Z,4.40
2018-11-25T16:50:46.756Z,4.40
2018-11-25T16:53:14.972Z,4.40
2018-11-25T16:55:43.186Z,4.40
2018-11-25T16:58:11.360Z,4.40
2018-11-25T17:00:39.645Z,4.30
2018-11-25T17:03:07.900Z,4.30
2018-11-25T17:05:39.000Z,4.30
2018-11-25T17:08:13.276Z,4.30
2018-11-25T17:10:41.474Z,4.30
2018-11-25T17:13:09.657Z,4.30
2018-11-25T17:15:37.877Z,4.30
2018-11-25T17:18:06.056Z,4.30
2018-11-25T17:20:34.260Z,4.30
2018-11-25T17:23:02.453Z,4.30
2018-11-25T17:25:30.705Z,4.30
2018-11-25T17:27:58.884Z,4.30
2018-11-25T17:30:27.089Z,4.30
2018-11-25T17:32:55.326Z,4.30
2018-11-25T17:35:25.155Z,4.30
2018-11-25T17:37:53.387Z,4.30
2018-11-25T17:40:21.572Z,4.30
2018-11-25T17:42:49.838Z,4.30
2018-11-25T17:45:18.033Z,4.40
2018-11-25T17:47:46.203Z,4.40
2018-11-25T17:50:18.801Z,4.40
2018-11-25T17:52:47.632Z,4.40
2018-11-25T17:55:16.124Z,4.40
2018-11-25T17:57:44.416Z,4.40
2018-11-25T18:00:27.393Z,4.40
2018-11-25T18:02:55.564Z,4.40
2018-11-25T18:05:23.804Z,4.40
2018-11-25T18:07:52.000Z,4.40
2018-11-25T18:10:20.196Z,4.50
2018-11-25T18:12:48.408Z,4.50
2018-11-25T18:15:18.651Z,4.50
2018-11-25T18:17:52.795Z,4.50
2018-11-25T18:20:21.861Z,4.50
2018-11-25T18:22:50.473Z,4.50
2018-11-25T18:25:18.675Z,4.50
2018-11-25T18:27:46.869Z,4.50
2018-11-25T18:30:16.507Z,4.50
2018-11-25T18:32:45.466Z,4.50
2018-11-25T18:35:13.700Z,4.60
2018-11-25T18:37:41.908Z,4.60
2018-11-25T18:40:11.555Z,4.60
2018-11-25T18:42:39.857Z,4.60
2018-11-25T18:45:10.370Z,4.60
2018-11-25T18:47:38.628Z,4.60
2018-11-25T18:50:09.258Z,4.60
2018-11-25T18:52:37.424Z,4.60
2018-11-25T18:55:04.671Z,4.60
2018-11-25T18:57:32.925Z,4.60
2018-11-25T19:00:01.115Z,4.60
2018-11-25T19:02:39.534Z,4.60
2018-11-25T19:05:08.019Z,4.60
2018-11-25T19:07:36.482Z,4.60
2018-11-25T19:10:20.943Z,4.60
2018-11-25T19:12:49.260Z,4.60
2018-11-25T19:15:18.853Z,4.60
2018-11-25T19:17:47.229Z,4.60
2018-11-25T19:20:16.810Z,4.60
2018-11-25T19:22:44.997Z,4.60
2018-11-25T19:25:14.730Z,4.60
2018-11-25T19:27:43.477Z,4.60
2018-11-25T19:30:13.605Z,4.60
2018-11-25T19:32:42.280Z,4.50
2018-11-25T19:35:11.552Z,4.50
2018-11-25T19:37:40.100Z,4.50
2018-11-25T19:40:14.494Z,4.50
2018-11-25T19:42:43.045Z,4.50
2018-11-25T19:45:16.327Z,4.50
2018-11-25T19:47:44.536Z,4.50
2018-11-25T19:50:16.450Z,4.50
2018-11-25T19:52:44.628Z,4.50
2018-11-25T19:55:13.060Z,4.50
2018-11-25T19:57:41.242Z,4.50
2018-11-25T20:00:15.080Z,4.50
2018-11-25T20:02:43.394Z,4.40
2018-11-25T20:05:12.660Z,4.40
2018-11-25T20:07:41.508Z,4.40
2018-11-25T20:10:11.333Z,4.40
2018-11-25T20:12:39.760Z,4.30
2018-11-25T20:15:09.383Z,4.30
2018-11-25T20:17:37.834Z,4.30
2018-11-25T20:20:09.226Z,4.30
2018-11-25T20:22:37.605Z,4.30
2018-11-25T20:25:07.726Z,4.30
2018-11-25T20:27:36.758Z,4.30
2018-11-25T20:30:08.256Z,4.30
2018-11-25T20:32:41.933Z,4.30
2018-11-25T20:35:10.120Z,4.30
2018-11-25T20:39:47.413Z,4.30
2018-11-25T20:42:15.772Z,4.30
2018-11-25T20:44:44.276Z,4.30
2018-11-25T20:47:12.672Z,4.30
2018-11-25T20:49:41.060Z,4.30
2018-11-25T20:52:14.728Z,4.30
2018-11-25T20:54:43.037Z,4.30
2018-11-25T20:57:11.332Z,4.30
2018-11-25T20:59:39.786Z,4.30
2018-11-25T21:02:08.133Z,4.30
2018-11-25T21:04:36.455Z,4.30
2018-11-25T21:07:04.879Z,4.30
2018-11-25T21:09:35.396Z,4.30
2018-11-25T21:12:03.605Z,4.30
2018-11-25T21:14:31.983Z,4.20
2018-11-25T21:17:00.332Z,4.30
2018-11-25T21:19:28.592Z,4.30
2018-11-25T21:21:56.824Z,4.20
2018-11-25T21:24:25.083Z,4.20
2018-11-25T21:26:53.346Z,4.20
2018-11-25T21:29:21.611Z,4.20
2018-11-25T21:31:49.977Z,4.20
2018-11-25T21:34:18.313Z,4.20
2018-11-25T21:36:46.706Z,4.20
2018-11-25T21:39:15.090Z,4.20
2018-11-25T21:41:43.417Z,4.20
2018-11-25T21:44:11.823Z,4.20
2018-11-25T21:46:40.225Z,4.20
2018-11-25T21:49:08.619Z,4.20
2018-11-25T21:51:36.836Z,4.20
2018-11-25T21:54:05.068Z,4.20
2018-11-25T21:56:33.228Z,4.10
2018-11-25T21:59:01.432Z,4.10
2018-11-25T22:01:29.652Z,4.10
2018-11-25T22:03:57.877Z,4.00
2018-11-25T22:06:26.032Z,4.00
2018-11-25T22:08:54.472Z,3.90
2018-11-25T22:11:22.833Z,3.90
2018-11-25T22:13:51.329Z,3.90
2018-11-25T22:16:19.699Z,3.80
2018-11-25T22:18:48.091Z,3.80
2018-11-25T22:21:16.592Z,3.80
2018-11-25T22:23:45.007Z,3.80
2018-11-25T22:26:13.438Z,3.80
2018-11-25T22:28:41.817Z,3.80
2018-11-25T22:31:10.200Z,3.80
2018-11-25T22:33:38.627Z,3.70
2018-11-25T22:36:07.009Z,3.70
2018-11-25T22:38:35.382Z,3.80
2018-11-25T22:41:03.616Z,3.80
2018-11-25T22:43:31.924Z,3.70
2018-11-25T22:46:00.346Z,3.70
2018-11-25T22:48:28.850Z,3.70
2018-11-25T22:50:57.290Z,3.70
2018-11-25T22:53:25.651Z,3.70
2018-11-25T22:55:54.031Z,3.70
2018-11-25T22:58:22.458Z,3.60
2018-11-25T23:00:52.567Z,3.60
2018-11-25T23:03:21.524Z,3.60
2018-11-25T23:06:01.161Z,3.60
2018-11-25T23:08:29.691Z,3.50
2018-11-25T23:10:58.113Z,3.50
2018-11-25T23:13:26.509Z,3.40
2018-11-25T23:15:54.953Z,3.40
2018-11-25T23:18:23.327Z,3.40
2018-11-25T23:20:52.124Z,3.40
2018-11-25T23:23:20.569Z,3.30
2018-11-25T23:25:48.778Z,3.30
2018-11-25T23:28:16.997Z,3.20
2018-11-25T23:30:45.196Z,3.20
2018-11-25T23:33:13.761Z,3.20
2018-11-25T23:35:42.093Z,3.10
2018-11-25T23:38:10.384Z,3.10
2018-11-25T23:40:39.489Z,3.10
2018-11-25T23:43:07.167Z,3.10
2018-11-25T23:45:35.512Z,3.00
2018-11-25T23:48:03.947Z,3.00
2018-11-25T23:50:32.332Z,3.00
2018-11-25T23:53:00.681Z,2.90
2018-11-25T23:55:29.096Z,2.90
2018-11-25T23:57:57.333Z,2.90
